sensor_id;sensor_type;location;lat;lon;timestamp;P1;durP1;ratioP1;P2;durP2;ratioP2
3881;SDS011;1956;53.482;10.238;2023-07-31T00:00:00;4.17;;;2.23;;
3881;SDS011;1956;53.482;10.238;2023-07-31T00:05:01;3.80;;;2.37;;
3881;SDS011;1956;53.482;10.238;2023-07-31T00:10:01;8.03;;;2.33;;
3881;SDS011;1956;53.482;10.238;2023-07-31T00:15:01;6.10;;;2.33;;
3881;SDS011;1956;53.482;10.238;2023-07-31T00:20:02;2.47;;;2.27;;
3881;SDS011;1956;53.482;10.238;2023-07-31T00:25:03;3.37;;;2.00;;
3881;SDS011;1956;53.482;10.238;2023-07-31T00:30:04;5.50;;;2.10;;
3881;SDS011;1956;53.482;10.238;2023-07-31T00:35:04;10.10;;;2.70;;
3881;SDS011;1956;53.482;10.238;2023-07-31T00:40:05;4.50;;;2.30;;
3881;SDS011;1956;53.482;10.238;2023-07-31T00:45:06;4.13;;;2.20;;
3881;SDS011;1956;53.482;10.238;2023-07-31T00:50:06;3.53;;;1.97;;
3881;SDS011;1956;53.482;10.238;2023-07-31T00:55:07;5.30;;;2.20;;
3881;SDS011;1956;53.482;10.238;2023-07-31T01:00:08;3.80;;;2.20;;
3881;SDS011;1956;53.482;10.238;2023-07-31T01:05:10;4.80;;;2.73;;
3881;SDS011;1956;53.482;10.238;2023-07-31T01:15:30;6.10;;;2.23;;
3881;SDS011;1956;53.482;10.238;2023-07-31T01:20:31;7.73;;;2.43;;
3881;SDS011;1956;53.482;10.238;2023-07-31T01:25:36;2.83;;;2.50;;
3881;SDS011;1956;53.482;10.238;2023-07-31T01:30:38;2.63;;;2.10;;
3881;SDS011;1956;53.482;10.238;2023-07-31T01:35:42;1.93;;;1.80;;
3881;SDS011;1956;53.482;10.238;2023-07-31T01:40:43;4.50;;;2.50;;
3881;SDS011;1956;53.482;10.238;2023-07-31T01:45:43;9.33;;;2.10;;
3881;SDS011;1956;53.482;10.238;2023-07-31T01:50:44;2.92;;;2.53;;
3881;SDS011;1956;53.482;10.238;2023-07-31T01:55:44;5.10;;;1.93;;
3881;SDS011;1956;53.482;10.238;2023-07-31T02:00:44;11.40;;;3.43;;
3881;SDS011;1956;53.482;10.238;2023-07-31T02:05:45;5.63;;;2.63;;
3881;SDS011;1956;53.482;10.238;2023-07-31T02:10:45;5.93;;;2.80;;
3881;SDS011;1956;53.482;10.238;2023-07-31T02:15:46;14.13;;;3.00;;
3881;SDS011;1956;53.482;10.238;2023-07-31T02:20:49;3.80;;;2.67;;
3881;SDS011;1956;53.482;10.238;2023-07-31T02:25:50;6.90;;;3.57;;
3881;SDS011;1956;53.482;10.238;2023-07-31T02:30:50;5.53;;;3.00;;
3881;SDS011;1956;53.482;10.238;2023-07-31T02:35:51;4.60;;;2.70;;
3881;SDS011;1956;53.482;10.238;2023-07-31T02:40:51;9.43;;;3.15;;
3881;SDS011;1956;53.482;10.238;2023-07-31T02:45:52;7.00;;;3.38;;
3881;SDS011;1956;53.482;10.238;2023-07-31T02:50:53;5.33;;;2.83;;
3881;SDS011;1956;53.482;10.238;2023-07-31T02:55:53;5.33;;;3.57;;
3881;SDS011;1956;53.482;10.238;2023-07-31T03:00:53;9.73;;;3.00;;
3881;SDS011;1956;53.482;10.238;2023-07-31T03:05:54;6.27;;;3.10;;
3881;SDS011;1956;53.482;10.238;2023-07-31T03:10:54;9.50;;;3.60;;
3881;SDS011;1956;53.482;10.238;2023-07-31T03:15:54;9.73;;;3.97;;
3881;SDS011;1956;53.482;10.238;2023-07-31T03:20:55;7.73;;;3.40;;
3881;SDS011;1956;53.482;10.238;2023-07-31T03:25:56;8.27;;;3.60;;
3881;SDS011;1956;53.482;10.238;2023-07-31T03:30:56;13.60;;;3.67;;
3881;SDS011;1956;53.482;10.238;2023-07-31T03:35:56;6.25;;;3.90;;
3881;SDS011;1956;53.482;10.238;2023-07-31T03:40:57;7.77;;;3.00;;
3881;SDS011;1956;53.482;10.238;2023-07-31T03:45:59;4.27;;;3.87;;
3881;SDS011;1956;53.482;10.238;2023-07-31T03:50:59;6.00;;;3.70;;
3881;SDS011;1956;53.482;10.238;2023-07-31T03:56:00;4.60;;;4.03;;
3881;SDS011;1956;53.482;10.238;2023-07-31T04:01:00;8.18;;;4.93;;
3881;SDS011;1956;53.482;10.238;2023-07-31T04:06:00;10.03;;;5.60;;
3881;SDS011;1956;53.482;10.238;2023-07-31T04:11:00;12.90;;;6.07;;
3881;SDS011;1956;53.482;10.238;2023-07-31T04:16:01;9.43;;;6.80;;
3881;SDS011;1956;53.482;10.238;2023-07-31T04:21:01;10.70;;;7.87;;
3881;SDS011;1956;53.482;10.238;2023-07-31T04:26:02;9.00;;;6.67;;
3881;SDS011;1956;53.482;10.238;2023-07-31T04:31:02;6.80;;;6.10;;
3881;SDS011;1956;53.482;10.238;2023-07-31T04:36:03;11.60;;;7.50;;
3881;SDS011;1956;53.482;10.238;2023-07-31T04:41:03;8.20;;;6.53;;
3881;SDS011;1956;53.482;10.238;2023-07-31T04:46:05;7.27;;;6.40;;
3881;SDS011;1956;53.482;10.238;2023-07-31T04:51:05;8.90;;;6.57;;
3881;SDS011;1956;53.482;10.238;2023-07-31T04:56:06;9.30;;;6.57;;
3881;SDS011;1956;53.482;10.238;2023-07-31T05:01:06;6.87;;;6.20;;
3881;SDS011;1956;53.482;10.238;2023-07-31T05:06:06;11.60;;;6.70;;
3881;SDS011;1956;53.482;10.238;2023-07-31T05:11:06;7.47;;;6.70;;
3881;SDS011;1956;53.482;10.238;2023-07-31T05:16:06;7.27;;;6.50;;
3881;SDS011;1956;53.482;10.238;2023-07-31T05:21:07;7.00;;;6.40;;
3881;SDS011;1956;53.482;10.238;2023-07-31T05:26:07;9.30;;;6.80;;
3881;SDS011;1956;53.482;10.238;2023-07-31T05:31:09;7.80;;;6.33;;
3881;SDS011;1956;53.482;10.238;2023-07-31T05:36:09;6.80;;;6.20;;
3881;SDS011;1956;53.482;10.238;2023-07-31T05:41:11;9.07;;;5.30;;
3881;SDS011;1956;53.482;10.238;2023-07-31T05:46:11;5.73;;;5.20;;
3881;SDS011;1956;53.482;10.238;2023-07-31T05:51:12;5.90;;;5.30;;
3881;SDS011;1956;53.482;10.238;2023-07-31T05:56:12;8.40;;;6.70;;
3881;SDS011;1956;53.482;10.238;2023-07-31T06:01:12;6.33;;;5.43;;
3881;SDS011;1956;53.482;10.238;2023-07-31T06:06:13;6.90;;;6.13;;
3881;SDS011;1956;53.482;10.238;2023-07-31T06:11:14;5.63;;;5.20;;
3881;SDS011;1956;53.482;10.238;2023-07-31T06:16:14;7.17;;;5.73;;
3881;SDS011;1956;53.482;10.238;2023-07-31T06:21:15;5.50;;;5.00;;
3881;SDS011;1956;53.482;10.238;2023-07-31T06:26:15;4.40;;;4.00;;
3881;SDS011;1956;53.482;10.238;2023-07-31T06:31:16;5.57;;;5.17;;
3881;SDS011;1956;53.482;10.238;2023-07-31T06:36:18;5.03;;;4.30;;
3881;SDS011;1956;53.482;10.238;2023-07-31T06:41:19;4.20;;;3.93;;
3881;SDS011;1956;53.482;10.238;2023-07-31T06:46:19;4.10;;;3.80;;
3881;SDS011;1956;53.482;10.238;2023-07-31T06:51:19;3.93;;;3.63;;
3881;SDS011;1956;53.482;10.238;2023-07-31T06:56:20;3.30;;;3.10;;
3881;SDS011;1956;53.482;10.238;2023-07-31T07:01:21;4.30;;;3.90;;
3881;SDS011;1956;53.482;10.238;2023-07-31T07:06:22;3.23;;;3.00;;
3881;SDS011;1956;53.482;10.238;2023-07-31T07:11:22;3.33;;;3.13;;
3881;SDS011;1956;53.482;10.238;2023-07-31T07:16:23;3.70;;;3.13;;
3881;SDS011;1956;53.482;10.238;2023-07-31T07:21:23;3.20;;;2.83;;
3881;SDS011;1956;53.482;10.238;2023-07-31T07:26:23;3.53;;;3.20;;
3881;SDS011;1956;53.482;10.238;2023-07-31T07:31:24;2.27;;;2.17;;
3881;SDS011;1956;53.482;10.238;2023-07-31T07:36:24;2.80;;;2.70;;
3881;SDS011;1956;53.482;10.238;2023-07-31T07:41:24;4.38;;;2.72;;
3881;SDS011;1956;53.482;10.238;2023-07-31T07:46:24;2.60;;;2.50;;
3881;SDS011;1956;53.482;10.238;2023-07-31T07:51:25;3.00;;;2.70;;
3881;SDS011;1956;53.482;10.238;2023-07-31T07:56:25;2.60;;;2.43;;
3881;SDS011;1956;53.482;10.238;2023-07-31T08:01:26;2.27;;;2.10;;
3881;SDS011;1956;53.482;10.238;2023-07-31T08:06:26;2.40;;;1.60;;
3881;SDS011;1956;53.482;10.238;2023-07-31T08:11:26;2.10;;;1.90;;
3881;SDS011;1956;53.482;10.238;2023-07-31T08:16:27;1.90;;;1.80;;
3881;SDS011;1956;53.482;10.238;2023-07-31T08:21:27;1.83;;;1.73;;
3881;SDS011;1956;53.482;10.238;2023-07-31T08:26:27;1.50;;;1.40;;
3881;SDS011;1956;53.482;10.238;2023-07-31T08:31:27;1.50;;;1.40;;
3881;SDS011;1956;53.482;10.238;2023-07-31T08:36:29;1.20;;;1.20;;
3881;SDS011;1956;53.482;10.238;2023-07-31T08:41:29;1.30;;;1.30;;
3881;SDS011;1956;53.482;10.238;2023-07-31T08:46:29;1.13;;;1.13;;
3881;SDS011;1956;53.482;10.238;2023-07-31T08:51:30;1.17;;;1.10;;
3881;SDS011;1956;53.482;10.238;2023-07-31T08:56:31;1.13;;;1.10;;
3881;SDS011;1956;53.482;10.238;2023-07-31T09:01:33;1.07;;;1.07;;
3881;SDS011;1956;53.482;10.238;2023-07-31T09:06:35;2.93;;;1.00;;
3881;SDS011;1956;53.482;10.238;2023-07-31T09:11:35;0.90;;;0.90;;
3881;SDS011;1956;53.482;10.238;2023-07-31T09:16:36;0.80;;;0.80;;
3881;SDS011;1956;53.482;10.238;2023-07-31T09:21:47;0.80;;;0.80;;
3881;SDS011;1956;53.482;10.238;2023-07-31T09:26:47;0.50;;;0.50;;
3881;SDS011;1956;53.482;10.238;2023-07-31T09:31:47;0.70;;;0.70;;
3881;SDS011;1956;53.482;10.238;2023-07-31T09:36:49;0.87;;;0.87;;
3881;SDS011;1956;53.482;10.238;2023-07-31T09:41:53;0.57;;;0.57;;
3881;SDS011;1956;53.482;10.238;2023-07-31T09:46:54;0.50;;;0.50;;
3881;SDS011;1956;53.482;10.238;2023-07-31T09:51:54;0.60;;;0.60;;
3881;SDS011;1956;53.482;10.238;2023-07-31T09:56:54;0.50;;;0.40;;
3881;SDS011;1956;53.482;10.238;2023-07-31T10:01:56;0.60;;;0.50;;
3881;SDS011;1956;53.482;10.238;2023-07-31T10:06:57;1.50;;;0.40;;
3881;SDS011;1956;53.482;10.238;2023-07-31T10:11:59;1.47;;;0.50;;
3881;SDS011;1956;53.482;10.238;2023-07-31T10:17:00;1.37;;;0.80;;
3881;SDS011;1956;53.482;10.238;2023-07-31T10:22:00;2.53;;;2.30;;
3881;SDS011;1956;53.482;10.238;2023-07-31T10:27:02;5.37;;;3.63;;
3881;SDS011;1956;53.482;10.238;2023-07-31T10:32:03;9.63;;;5.80;;
3881;SDS011;1956;53.482;10.238;2023-07-31T10:42:35;19.33;;;7.57;;
3881;SDS011;1956;53.482;10.238;2023-07-31T10:47:38;22.03;;;10.90;;
3881;SDS011;1956;53.482;10.238;2023-07-31T10:52:39;24.67;;;8.90;;
3881;SDS011;1956;53.482;10.238;2023-07-31T10:57:39;19.50;;;9.97;;
3881;SDS011;1956;53.482;10.238;2023-07-31T11:02:39;18.10;;;9.27;;
3881;SDS011;1956;53.482;10.238;2023-07-31T11:07:46;21.27;;;10.02;;
3881;SDS011;1956;53.482;10.238;2023-07-31T11:12:46;13.63;;;7.33;;
3881;SDS011;1956;53.482;10.238;2023-07-31T11:17:47;15.67;;;8.30;;
3881;SDS011;1956;53.482;10.238;2023-07-31T11:22:47;16.03;;;6.20;;
3881;SDS011;1956;53.482;10.238;2023-07-31T11:27:47;11.37;;;5.87;;
3881;SDS011;1956;53.482;10.238;2023-07-31T11:32:51;6.70;;;4.80;;
3881;SDS011;1956;53.482;10.238;2023-07-31T11:37:52;10.17;;;6.80;;
3881;SDS011;1956;53.482;10.238;2023-07-31T11:42:52;5.63;;;4.50;;
3881;SDS011;1956;53.482;10.238;2023-07-31T11:47:52;5.47;;;4.10;;
3881;SDS011;1956;53.482;10.238;2023-07-31T11:52:55;7.20;;;4.50;;
3881;SDS011;1956;53.482;10.238;2023-07-31T11:57:57;8.50;;;4.07;;
3881;SDS011;1956;53.482;10.238;2023-07-31T12:02:57;6.63;;;4.37;;
3881;SDS011;1956;53.482;10.238;2023-07-31T12:07:58;4.10;;;3.35;;
3881;SDS011;1956;53.482;10.238;2023-07-31T12:13:02;5.97;;;3.30;;
3881;SDS011;1956;53.482;10.238;2023-07-31T12:18:06;3.17;;;2.87;;
3881;SDS011;1956;53.482;10.238;2023-07-31T12:23:07;5.13;;;2.73;;
3881;SDS011;1956;53.482;10.238;2023-07-31T12:28:07;2.53;;;2.33;;
3881;SDS011;1956;53.482;10.238;2023-07-31T12:33:14;3.97;;;2.70;;
3881;SDS011;1956;53.482;10.238;2023-07-31T12:38:14;2.57;;;1.80;;
3881;SDS011;1956;53.482;10.238;2023-07-31T12:43:15;2.50;;;2.40;;
3881;SDS011;1956;53.482;10.238;2023-07-31T12:48:15;3.87;;;2.73;;
3881;SDS011;1956;53.482;10.238;2023-07-31T12:53:16;2.50;;;2.30;;
3881;SDS011;1956;53.482;10.238;2023-07-31T12:58:16;2.00;;;1.90;;
3881;SDS011;1956;53.482;10.238;2023-07-31T13:03:16;2.00;;;1.80;;
3881;SDS011;1956;53.482;10.238;2023-07-31T13:08:17;2.40;;;2.20;;
3881;SDS011;1956;53.482;10.238;2023-07-31T13:13:17;3.70;;;1.87;;
3881;SDS011;1956;53.482;10.238;2023-07-31T13:18:17;1.80;;;1.70;;
3881;SDS011;1956;53.482;10.238;2023-07-31T13:23:18;2.40;;;1.97;;
3881;SDS011;1956;53.482;10.238;2023-07-31T13:28:18;1.80;;;1.70;;
3881;SDS011;1956;53.482;10.238;2023-07-31T13:33:18;1.57;;;1.47;;
3881;SDS011;1956;53.482;10.238;2023-07-31T13:38:18;1.40;;;1.30;;
3881;SDS011;1956;53.482;10.238;2023-07-31T13:43:19;1.90;;;1.80;;
3881;SDS011;1956;53.482;10.238;2023-07-31T13:48:19;1.73;;;1.63;;
3881;SDS011;1956;53.482;10.238;2023-07-31T13:53:19;1.53;;;1.43;;
3881;SDS011;1956;53.482;10.238;2023-07-31T13:58:19;2.20;;;1.37;;
3881;SDS011;1956;53.482;10.238;2023-07-31T14:03:20;1.73;;;1.63;;
3881;SDS011;1956;53.482;10.238;2023-07-31T14:08:20;11.30;;;2.10;;
3881;SDS011;1956;53.482;10.238;2023-07-31T14:13:20;2.03;;;1.92;;
3881;SDS011;1956;53.482;10.238;2023-07-31T14:18:21;1.57;;;1.47;;
3881;SDS011;1956;53.482;10.238;2023-07-31T14:23:21;1.45;;;1.42;;
3881;SDS011;1956;53.482;10.238;2023-07-31T14:28:21;1.23;;;1.13;;
3881;SDS011;1956;53.482;10.238;2023-07-31T14:33:21;1.10;;;1.10;;
3881;SDS011;1956;53.482;10.238;2023-07-31T14:38:22;1.20;;;1.20;;
3881;SDS011;1956;53.482;10.238;2023-07-31T14:43:22;2.17;;;1.93;;
3881;SDS011;1956;53.482;10.238;2023-07-31T14:48:22;1.97;;;1.87;;
3881;SDS011;1956;53.482;10.238;2023-07-31T14:53:23;2.77;;;2.57;;
3881;SDS011;1956;53.482;10.238;2023-07-31T14:58:23;2.60;;;2.50;;
3881;SDS011;1956;53.482;10.238;2023-07-31T15:03:24;3.57;;;3.37;;
3881;SDS011;1956;53.482;10.238;2023-07-31T15:08:25;3.83;;;3.10;;
3881;SDS011;1956;53.482;10.238;2023-07-31T15:13:25;10.00;;;3.37;;
3881;SDS011;1956;53.482;10.238;2023-07-31T15:18:25;5.27;;;3.80;;
3881;SDS011;1956;53.482;10.238;2023-07-31T15:23:25;4.30;;;4.00;;
3881;SDS011;1956;53.482;10.238;2023-07-31T15:28:26;4.03;;;3.73;;
3881;SDS011;1956;53.482;10.238;2023-07-31T15:33:26;4.37;;;4.07;;
3881;SDS011;1956;53.482;10.238;2023-07-31T15:38:26;4.53;;;4.13;;
3881;SDS011;1956;53.482;10.238;2023-07-31T15:43:27;5.60;;;4.60;;
3881;SDS011;1956;53.482;10.238;2023-07-31T15:48:27;4.13;;;3.73;;
3881;SDS011;1956;53.482;10.238;2023-07-31T15:53:27;4.10;;;3.80;;
3881;SDS011;1956;53.482;10.238;2023-07-31T15:58:28;5.30;;;4.80;;
3881;SDS011;1956;53.482;10.238;2023-07-31T16:03:28;5.67;;;5.17;;
3881;SDS011;1956;53.482;10.238;2023-07-31T16:08:28;6.00;;;5.40;;
3881;SDS011;1956;53.482;10.238;2023-07-31T16:13:28;7.00;;;6.10;;
3881;SDS011;1956;53.482;10.238;2023-07-31T16:18:29;6.23;;;5.60;;
3881;SDS011;1956;53.482;10.238;2023-07-31T16:23:29;7.35;;;5.65;;
3881;SDS011;1956;53.482;10.238;2023-07-31T16:28:29;9.43;;;5.87;;
3881;SDS011;1956;53.482;10.238;2023-07-31T16:33:29;7.63;;;6.50;;
3881;SDS011;1956;53.482;10.238;2023-07-31T16:38:30;7.70;;;7.00;;
3881;SDS011;1956;53.482;10.238;2023-07-31T16:43:30;6.80;;;6.20;;
3881;SDS011;1956;53.482;10.238;2023-07-31T16:48:30;5.00;;;4.50;;
3881;SDS011;1956;53.482;10.238;2023-07-31T16:53:31;6.60;;;5.43;;
3881;SDS011;1956;53.482;10.238;2023-07-31T16:58:31;5.87;;;5.27;;
3881;SDS011;1956;53.482;10.238;2023-07-31T17:03:31;4.83;;;4.43;;
3881;SDS011;1956;53.482;10.238;2023-07-31T17:08:31;4.18;;;3.85;;
3881;SDS011;1956;53.482;10.238;2023-07-31T17:13:32;6.80;;;3.90;;
3881;SDS011;1956;53.482;10.238;2023-07-31T17:18:32;4.43;;;4.10;;
3881;SDS011;1956;53.482;10.238;2023-07-31T17:23:32;6.23;;;4.40;;
3881;SDS011;1956;53.482;10.238;2023-07-31T17:28:32;4.93;;;4.40;;
3881;SDS011;1956;53.482;10.238;2023-07-31T17:33:33;12.55;;;4.82;;
3881;SDS011;1956;53.482;10.238;2023-07-31T17:38:33;5.20;;;4.43;;
3881;SDS011;1956;53.482;10.238;2023-07-31T17:43:34;7.25;;;5.63;;
3881;SDS011;1956;53.482;10.238;2023-07-31T17:48:34;5.20;;;4.57;;
3881;SDS011;1956;53.482;10.238;2023-07-31T17:53:34;7.17;;;5.77;;
3881;SDS011;1956;53.482;10.238;2023-07-31T17:58:34;6.37;;;4.53;;
3881;SDS011;1956;53.482;10.238;2023-07-31T18:03:35;4.90;;;4.50;;
3881;SDS011;1956;53.482;10.238;2023-07-31T18:08:35;4.77;;;4.40;;
3881;SDS011;1956;53.482;10.238;2023-07-31T18:13:36;4.50;;;4.10;;
3881;SDS011;1956;53.482;10.238;2023-07-31T18:18:36;7.60;;;4.70;;
3881;SDS011;1956;53.482;10.238;2023-07-31T18:23:37;5.20;;;4.75;;
3881;SDS011;1956;53.482;10.238;2023-07-31T18:28:37;8.63;;;5.50;;
3881;SDS011;1956;53.482;10.238;2023-07-31T18:33:37;9.57;;;5.77;;
3881;SDS011;1956;53.482;10.238;2023-07-31T18:38:37;7.50;;;6.07;;
3881;SDS011;1956;53.482;10.238;2023-07-31T18:43:38;6.67;;;6.07;;
3881;SDS011;1956;53.482;10.238;2023-07-31T18:48:38;6.10;;;5.50;;
3881;SDS011;1956;53.482;10.238;2023-07-31T18:53:38;6.27;;;5.67;;
3881;SDS011;1956;53.482;10.238;2023-07-31T18:58:39;9.73;;;5.87;;
3881;SDS011;1956;53.482;10.238;2023-07-31T19:03:39;5.93;;;5.33;;
3881;SDS011;1956;53.482;10.238;2023-07-31T19:08:39;6.50;;;5.90;;
3881;SDS011;1956;53.482;10.238;2023-07-31T19:13:39;7.60;;;6.80;;
3881;SDS011;1956;53.482;10.238;2023-07-31T19:18:43;11.43;;;7.00;;
3881;SDS011;1956;53.482;10.238;2023-07-31T19:23:43;8.30;;;7.50;;
3881;SDS011;1956;53.482;10.238;2023-07-31T19:28:43;9.00;;;7.03;;
3881;SDS011;1956;53.482;10.238;2023-07-31T19:33:44;9.07;;;7.17;;
3881;SDS011;1956;53.482;10.238;2023-07-31T19:38:44;11.20;;;8.20;;
3881;SDS011;1956;53.482;10.238;2023-07-31T19:43:44;7.77;;;7.07;;
3881;SDS011;1956;53.482;10.238;2023-07-31T19:48:44;8.90;;;7.57;;
3881;SDS011;1956;53.482;10.238;2023-07-31T19:53:45;10.03;;;7.23;;
3881;SDS011;1956;53.482;10.238;2023-07-31T19:58:45;8.90;;;7.90;;
3881;SDS011;1956;53.482;10.238;2023-07-31T20:03:45;9.63;;;8.63;;
3881;SDS011;1956;53.482;10.238;2023-07-31T20:08:45;10.10;;;8.60;;
3881;SDS011;1956;53.482;10.238;2023-07-31T20:13:46;9.03;;;8.23;;
3881;SDS011;1956;53.482;10.238;2023-07-31T20:18:46;11.03;;;8.67;;
3881;SDS011;1956;53.482;10.238;2023-07-31T20:23:49;10.40;;;9.40;;
3881;SDS011;1956;53.482;10.238;2023-07-31T20:28:49;15.30;;;10.37;;
3881;SDS011;1956;53.482;10.238;2023-07-31T20:33:52;10.43;;;9.50;;
3881;SDS011;1956;53.482;10.238;2023-07-31T20:38:52;13.03;;;10.70;;
3881;SDS011;1956;53.482;10.238;2023-07-31T20:43:53;10.53;;;9.50;;
3881;SDS011;1956;53.482;10.238;2023-07-31T20:48:53;13.57;;;8.57;;
3881;SDS011;1956;53.482;10.238;2023-07-31T20:53:53;9.40;;;8.50;;
3881;SDS011;1956;53.482;10.238;2023-07-31T20:58:53;8.93;;;6.63;;
3881;SDS011;1956;53.482;10.238;2023-07-31T21:03:54;8.37;;;5.30;;
3881;SDS011;1956;53.482;10.238;2023-07-31T21:08:54;5.63;;;4.93;;
3881;SDS011;1956;53.482;10.238;2023-07-31T21:13:54;4.93;;;4.20;;
3881;SDS011;1956;53.482;10.238;2023-07-31T21:18:57;4.83;;;4.10;;
3881;SDS011;1956;53.482;10.238;2023-07-31T21:23:58;5.73;;;3.47;;
3881;SDS011;1956;53.482;10.238;2023-07-31T21:28:58;3.03;;;2.80;;
3881;SDS011;1956;53.482;10.238;2023-07-31T21:34:01;3.50;;;2.23;;
3881;SDS011;1956;53.482;10.238;2023-07-31T21:39:01;3.07;;;2.77;;
3881;SDS011;1956;53.482;10.238;2023-07-31T21:44:01;2.43;;;1.93;;
3881;SDS011;1956;53.482;10.238;2023-07-31T21:49:02;5.27;;;2.33;;
3881;SDS011;1956;53.482;10.238;2023-07-31T21:54:02;2.40;;;1.53;;
3881;SDS011;1956;53.482;10.238;2023-07-31T21:59:02;3.10;;;1.70;;
3881;SDS011;1956;53.482;10.238;2023-07-31T22:04:03;3.93;;;1.90;;
3881;SDS011;1956;53.482;10.238;2023-07-31T22:09:03;2.70;;;1.50;;
3881;SDS011;1956;53.482;10.238;2023-07-31T22:14:03;2.40;;;1.73;;
3881;SDS011;1956;53.482;10.238;2023-07-31T22:19:04;2.20;;;2.00;;
3881;SDS011;1956;53.482;10.238;2023-07-31T22:24:04;3.00;;;2.27;;
3881;SDS011;1956;53.482;10.238;2023-07-31T22:29:04;2.30;;;2.10;;
3881;SDS011;1956;53.482;10.238;2023-07-31T22:34:04;2.80;;;2.53;;
3881;SDS011;1956;53.482;10.238;2023-07-31T22:39:05;4.27;;;2.67;;
3881;SDS011;1956;53.482;10.238;2023-07-31T22:44:05;6.07;;;2.70;;
3881;SDS011;1956;53.482;10.238;2023-07-31T22:49:05;3.27;;;2.77;;
3881;SDS011;1956;53.482;10.238;2023-07-31T22:54:05;4.60;;;3.03;;
3881;SDS011;1956;53.482;10.238;2023-07-31T22:59:06;7.20;;;3.00;;
3881;SDS011;1956;53.482;10.238;2023-07-31T23:04:06;5.47;;;2.60;;
3881;SDS011;1956;53.482;10.238;2023-07-31T23:09:06;3.27;;;3.00;;
3881;SDS011;1956;53.482;10.238;2023-07-31T23:14:06;5.43;;;3.63;;
3881;SDS011;1956;53.482;10.238;2023-07-31T23:19:07;3.20;;;3.00;;
3881;SDS011;1956;53.482;10.238;2023-07-31T23:24:08;3.73;;;3.43;;
3881;SDS011;1956;53.482;10.238;2023-07-31T23:29:08;4.50;;;4.10;;
3881;SDS011;1956;53.482;10.238;2023-07-31T23:34:08;3.90;;;3.70;;
3881;SDS011;1956;53.482;10.238;2023-07-31T23:39:09;4.30;;;3.20;;
3881;SDS011;1956;53.482;10.238;2023-07-31T23:44:09;5.83;;;3.50;;
3881;SDS011;1956;53.482;10.238;2023-07-31T23:49:10;5.47;;;3.40;;
3881;SDS011;1956;53.482;10.238;2023-07-31T23:54:11;2.63;;;2.43;;
3881;SDS011;1956;53.482;10.238;2023-07-31T23:59:11;4.40;;;2.53;;
